Arnold Line, Mississippi
Current Conditions -  °F | °C
As of 4:53 AM on Friday 28 Nov 2014 (Local Time) from KHBG Reporting Station
Clear Clear  
Wind Chill: 30°   Ceiling: Unl
Heat Index: 30°   Visibility: 10mi
Dew Point: 28°   Wind: 0mph
Humidity: 92%   Direction: NA
Pressure: 30.44"   Gusts: NA
Location:  31.1996°N, 89.2694°W
Report Text: KHBG 281053Z AUTO 00000KT 10SM CLR M01/M02 A3044 RMK AO2 SLP309 T10111022
Loading
Personal Weather Stations






























Interactive Weather Map New forecast layout! Learn more

10-Day Weather Forecast

Advertisements
Track Severe Weather on mobile